sensor_id;sensor_type;location;lat;lon;timestamp;temperature;humidity
38568;DHT22;24338;48.280;10.970;2022-09-09T00:04:03;12.20;99.90
38568;DHT22;24338;48.280;10.970;2022-09-09T00:06:42;12.20;99.90
38568;DHT22;24338;48.280;10.970;2022-09-09T00:09:15;12.10;99.90
38568;DHT22;24338;48.280;10.970;2022-09-09T00:11:47;12.10;99.90
38568;DHT22;24338;48.280;10.970;2022-09-09T00:16:56;12.10;99.90
38568;DHT22;24338;48.280;10.970;2022-09-09T00:22:23;12.00;99.90
38568;DHT22;24338;48.280;10.970;2022-09-09T00:24:54;12.00;99.90
38568;DHT22;24338;48.280;10.970;2022-09-09T00:30:21;12.00;99.90
38568;DHT22;24338;48.280;10.970;2022-09-09T00:33:02;12.00;99.90
38568;DHT22;24338;48.280;10.970;2022-09-09T00:35:46;12.00;99.90
38568;DHT22;24338;48.280;10.970;2022-09-09T00:38:19;11.90;99.90
38568;DHT22;24338;48.280;10.970;2022-09-09T00:41:11;11.90;99.90
38568;DHT22;24338;48.280;10.970;2022-09-09T00:43:41;11.90;99.90
38568;DHT22;24338;48.280;10.970;2022-09-09T00:51:43;11.80;99.90
38568;DHT22;24338;48.280;10.970;2022-09-09T00:54:23;11.80;99.90
38568;DHT22;24338;48.280;10.970;2022-09-09T00:57:12;11.80;99.90
38568;DHT22;24338;48.280;10.970;2022-09-09T00:59:52;11.80;99.90
38568;DHT22;24338;48.280;10.970;2022-09-09T01:02:26;11.80;99.90
38568;DHT22;24338;48.280;10.970;2022-09-09T01:05:07;11.80;99.90
38568;DHT22;24338;48.280;10.970;2022-09-09T01:07:36;11.80;99.90
38568;DHT22;24338;48.280;10.970;2022-09-09T01:10:08;11.80;99.90
38568;DHT22;24338;48.280;10.970;2022-09-09T01:12:42;11.90;99.90
38568;DHT22;24338;48.280;10.970;2022-09-09T01:15:13;11.90;99.90
38568;DHT22;24338;48.280;10.970;2022-09-09T01:18:03;11.90;99.90
38568;DHT22;24338;48.280;10.970;2022-09-09T01:20:47;11.90;99.90
38568;DHT22;24338;48.280;10.970;2022-09-09T01:23:43;11.90;99.90
38568;DHT22;24338;48.280;10.970;2022-09-09T01:28:50;11.90;99.90
38568;DHT22;24338;48.280;10.970;2022-09-09T01:31:24;11.90;99.90
38568;DHT22;24338;48.280;10.970;2022-09-09T01:33:53;11.90;99.90
38568;DHT22;24338;48.280;10.970;2022-09-09T01:39:06;12.00;99.90
38568;DHT22;24338;48.280;10.970;2022-09-09T01:41:33;11.90;99.90
38568;DHT22;24338;48.280;10.970;2022-09-09T01:44:00;12.00;99.90
38568;DHT22;24338;48.280;10.970;2022-09-09T01:46:28;12.00;99.90
38568;DHT22;24338;48.280;10.970;2022-09-09T01:48:56;12.00;99.90
38568;DHT22;24338;48.280;10.970;2022-09-09T01:51:23;12.00;99.90
38568;DHT22;24338;48.280;10.970;2022-09-09T01:53:50;12.00;99.90
38568;DHT22;24338;48.280;10.970;2022-09-09T01:59:14;12.00;99.90
38568;DHT22;24338;48.280;10.970;2022-09-09T02:02:11;12.00;99.90
38568;DHT22;24338;48.280;10.970;2022-09-09T02:04:41;11.90;99.90
38568;DHT22;24338;48.280;10.970;2022-09-09T02:10:21;12.00;99.90
38568;DHT22;24338;48.280;10.970;2022-09-09T02:12:58;11.90;99.90
38568;DHT22;24338;48.280;10.970;2022-09-09T02:15:35;11.90;99.90
38568;DHT22;24338;48.280;10.970;2022-09-09T02:18:06;12.00;99.90
38568;DHT22;24338;48.280;10.970;2022-09-09T02:20:37;11.90;99.90
38568;DHT22;24338;48.280;10.970;2022-09-09T02:23:05;11.90;99.90
38568;DHT22;24338;48.280;10.970;2022-09-09T02:25:36;11.90;99.90
38568;DHT22;24338;48.280;10.970;2022-09-09T02:28:06;11.90;99.90
38568;DHT22;24338;48.280;10.970;2022-09-09T02:30:35;11.90;99.90
38568;DHT22;24338;48.280;10.970;2022-09-09T02:33:04;11.90;99.90
38568;DHT22;24338;48.280;10.970;2022-09-09T02:35:34;11.90;99.90
38568;DHT22;24338;48.280;10.970;2022-09-09T02:38:08;11.90;99.90
38568;DHT22;24338;48.280;10.970;2022-09-09T02:40:37;11.90;99.90
38568;DHT22;24338;48.280;10.970;2022-09-09T02:43:04;11.90;99.90
38568;DHT22;24338;48.280;10.970;2022-09-09T02:45:39;11.90;99.90
38568;DHT22;24338;48.280;10.970;2022-09-09T02:48:14;11.90;99.90
38568;DHT22;24338;48.280;10.970;2022-09-09T02:51:12;11.90;99.90
38568;DHT22;24338;48.280;10.970;2022-09-09T02:54:04;11.80;99.90
38568;DHT22;24338;48.280;10.970;2022-09-09T02:56:42;11.70;99.90
38568;DHT22;24338;48.280;10.970;2022-09-09T02:59:10;11.70;99.90
38568;DHT22;24338;48.280;10.970;2022-09-09T03:01:38;11.70;99.90
38568;DHT22;24338;48.280;10.970;2022-09-09T03:04:06;11.70;99.90
38568;DHT22;24338;48.280;10.970;2022-09-09T03:06:33;11.60;99.90
38568;DHT22;24338;48.280;10.970;2022-09-09T03:09:00;11.60;99.90
38568;DHT22;24338;48.280;10.970;2022-09-09T03:11:29;11.60;99.90
38568;DHT22;24338;48.280;10.970;2022-09-09T03:13:55;11.60;99.90
38568;DHT22;24338;48.280;10.970;2022-09-09T03:16:23;11.60;99.90
38568;DHT22;24338;48.280;10.970;2022-09-09T03:18:50;11.60;99.90
38568;DHT22;24338;48.280;10.970;2022-09-09T03:21:17;11.60;99.90
38568;DHT22;24338;48.280;10.970;2022-09-09T03:23:44;11.50;99.90
38568;DHT22;24338;48.280;10.970;2022-09-09T03:26:14;11.50;99.90
38568;DHT22;24338;48.280;10.970;2022-09-09T03:28:43;11.40;99.90
38568;DHT22;24338;48.280;10.970;2022-09-09T03:31:11;11.40;99.90
38568;DHT22;24338;48.280;10.970;2022-09-09T03:33:38;11.40;99.90
38568;DHT22;24338;48.280;10.970;2022-09-09T03:36:05;11.40;99.90
38568;DHT22;24338;48.280;10.970;2022-09-09T03:38:34;11.40;99.90
38568;DHT22;24338;48.280;10.970;2022-09-09T03:41:01;11.40;99.90
38568;DHT22;24338;48.280;10.970;2022-09-09T03:43:28;11.40;99.90
38568;DHT22;24338;48.280;10.970;2022-09-09T03:45:56;11.40;99.90
38568;DHT22;24338;48.280;10.970;2022-09-09T03:48:26;11.40;99.90
38568;DHT22;24338;48.280;10.970;2022-09-09T03:50:55;11.30;99.90
38568;DHT22;24338;48.280;10.970;2022-09-09T03:53:27;11.30;99.90
38568;DHT22;24338;48.280;10.970;2022-09-09T03:55:56;11.30;99.90
38568;DHT22;24338;48.280;10.970;2022-09-09T03:58:26;11.30;99.90
38568;DHT22;24338;48.280;10.970;2022-09-09T04:01:02;11.30;99.90
38568;DHT22;24338;48.280;10.970;2022-09-09T04:03:29;11.20;99.90
38568;DHT22;24338;48.280;10.970;2022-09-09T04:05:58;11.20;99.90
38568;DHT22;24338;48.280;10.970;2022-09-09T04:08:25;11.20;99.90
38568;DHT22;24338;48.280;10.970;2022-09-09T04:10:53;11.20;99.90
38568;DHT22;24338;48.280;10.970;2022-09-09T04:13:24;11.20;99.90
38568;DHT22;24338;48.280;10.970;2022-09-09T04:15:54;11.30;99.90
38568;DHT22;24338;48.280;10.970;2022-09-09T04:18:21;11.30;99.90
38568;DHT22;24338;48.280;10.970;2022-09-09T04:20:49;11.40;99.90
38568;DHT22;24338;48.280;10.970;2022-09-09T04:23:17;11.40;99.90
38568;DHT22;24338;48.280;10.970;2022-09-09T04:28:16;11.60;99.90
38568;DHT22;24338;48.280;10.970;2022-09-09T04:30:44;11.60;99.90
38568;DHT22;24338;48.280;10.970;2022-09-09T04:33:12;11.70;99.90
38568;DHT22;24338;48.280;10.970;2022-09-09T04:35:47;11.80;99.90
38568;DHT22;24338;48.280;10.970;2022-09-09T04:38:16;11.80;99.90
38568;DHT22;24338;48.280;10.970;2022-09-09T04:40:45;11.80;99.90
38568;DHT22;24338;48.280;10.970;2022-09-09T04:43:14;11.90;99.90
38568;DHT22;24338;48.280;10.970;2022-09-09T04:45:42;11.90;99.90
38568;DHT22;24338;48.280;10.970;2022-09-09T04:48:09;12.00;99.90
38568;DHT22;24338;48.280;10.970;2022-09-09T04:50:39;12.00;99.90
38568;DHT22;24338;48.280;10.970;2022-09-09T04:53:07;12.10;99.90
38568;DHT22;24338;48.280;10.970;2022-09-09T04:55:34;12.10;99.90
38568;DHT22;24338;48.280;10.970;2022-09-09T04:58:05;12.20;99.90
38568;DHT22;24338;48.280;10.970;2022-09-09T05:00:33;12.20;99.90
38568;DHT22;24338;48.280;10.970;2022-09-09T05:03:06;12.20;99.90
38568;DHT22;24338;48.280;10.970;2022-09-09T05:05:35;12.30;99.90
38568;DHT22;24338;48.280;10.970;2022-09-09T05:08:05;12.30;99.90
38568;DHT22;24338;48.280;10.970;2022-09-09T05:10:33;12.30;99.90
38568;DHT22;24338;48.280;10.970;2022-09-09T05:13:00;12.40;99.90
38568;DHT22;24338;48.280;10.970;2022-09-09T05:15:27;12.40;99.90
38568;DHT22;24338;48.280;10.970;2022-09-09T05:18:01;12.40;99.90
38568;DHT22;24338;48.280;10.970;2022-09-09T05:20:29;12.40;99.90
38568;DHT22;24338;48.280;10.970;2022-09-09T05:22:56;12.40;99.90
38568;DHT22;24338;48.280;10.970;2022-09-09T05:25:23;12.50;99.90
38568;DHT22;24338;48.280;10.970;2022-09-09T05:27:52;12.50;99.90
38568;DHT22;24338;48.280;10.970;2022-09-09T05:30:21;12.60;99.90
38568;DHT22;24338;48.280;10.970;2022-09-09T05:32:49;12.60;99.90
38568;DHT22;24338;48.280;10.970;2022-09-09T05:35:16;12.70;99.90
38568;DHT22;24338;48.280;10.970;2022-09-09T05:37:45;12.70;99.90
38568;DHT22;24338;48.280;10.970;2022-09-09T05:40:12;12.80;99.90
38568;DHT22;24338;48.280;10.970;2022-09-09T05:42:40;12.80;99.90
38568;DHT22;24338;48.280;10.970;2022-09-09T05:45:08;12.80;99.90
38568;DHT22;24338;48.280;10.970;2022-09-09T05:47:35;12.80;99.90
38568;DHT22;24338;48.280;10.970;2022-09-09T05:50:04;12.90;99.90
38568;DHT22;24338;48.280;10.970;2022-09-09T05:52:31;13.00;99.90
38568;DHT22;24338;48.280;10.970;2022-09-09T05:54:58;13.00;99.90
38568;DHT22;24338;48.280;10.970;2022-09-09T05:57:26;13.10;99.90
38568;DHT22;24338;48.280;10.970;2022-09-09T05:59:53;13.10;99.90
38568;DHT22;24338;48.280;10.970;2022-09-09T06:02:20;13.20;99.90
38568;DHT22;24338;48.280;10.970;2022-09-09T06:04:47;13.20;99.90
38568;DHT22;24338;48.280;10.970;2022-09-09T06:07:14;13.10;99.90
38568;DHT22;24338;48.280;10.970;2022-09-09T06:09:41;13.20;99.90
38568;DHT22;24338;48.280;10.970;2022-09-09T06:12:08;13.20;99.90
38568;DHT22;24338;48.280;10.970;2022-09-09T06:14:35;13.30;99.90
38568;DHT22;24338;48.280;10.970;2022-09-09T06:17:03;13.30;99.90
38568;DHT22;24338;48.280;10.970;2022-09-09T06:19:31;13.40;99.90
38568;DHT22;24338;48.280;10.970;2022-09-09T06:21:58;13.40;99.90
38568;DHT22;24338;48.280;10.970;2022-09-09T06:24:25;13.40;99.90
38568;DHT22;24338;48.280;10.970;2022-09-09T06:26:52;13.40;99.90
38568;DHT22;24338;48.280;10.970;2022-09-09T06:29:19;13.50;99.90
38568;DHT22;24338;48.280;10.970;2022-09-09T06:31:45;13.50;99.90
38568;DHT22;24338;48.280;10.970;2022-09-09T06:34:12;13.50;99.90
38568;DHT22;24338;48.280;10.970;2022-09-09T06:36:39;13.60;99.90
38568;DHT22;24338;48.280;10.970;2022-09-09T06:39:07;13.60;99.90
38568;DHT22;24338;48.280;10.970;2022-09-09T06:41:40;13.60;99.90
38568;DHT22;24338;48.280;10.970;2022-09-09T06:44:07;13.70;99.90
38568;DHT22;24338;48.280;10.970;2022-09-09T06:46:37;13.70;99.90
38568;DHT22;24338;48.280;10.970;2022-09-09T06:49:05;13.70;99.90
38568;DHT22;24338;48.280;10.970;2022-09-09T06:51:35;13.70;99.90
38568;DHT22;24338;48.280;10.970;2022-09-09T06:54:03;13.80;99.90
38568;DHT22;24338;48.280;10.970;2022-09-09T06:56:38;13.90;99.90
38568;DHT22;24338;48.280;10.970;2022-09-09T06:59:07;13.90;99.90
38568;DHT22;24338;48.280;10.970;2022-09-09T07:01:37;13.90;99.90
38568;DHT22;24338;48.280;10.970;2022-09-09T07:04:04;14.00;99.90
38568;DHT22;24338;48.280;10.970;2022-09-09T07:06:37;13.90;99.90
38568;DHT22;24338;48.280;10.970;2022-09-09T07:09:07;14.00;99.90
38568;DHT22;24338;48.280;10.970;2022-09-09T07:11:45;14.00;99.90
38568;DHT22;24338;48.280;10.970;2022-09-09T07:14:13;14.00;99.90
38568;DHT22;24338;48.280;10.970;2022-09-09T07:16:41;14.10;99.90
38568;DHT22;24338;48.280;10.970;2022-09-09T07:19:08;14.10;99.90
38568;DHT22;24338;48.280;10.970;2022-09-09T07:21:35;14.20;99.90
38568;DHT22;24338;48.280;10.970;2022-09-09T07:24:02;14.20;99.90
38568;DHT22;24338;48.280;10.970;2022-09-09T07:26:32;14.30;99.90
38568;DHT22;24338;48.280;10.970;2022-09-09T07:29:11;14.40;99.90
38568;DHT22;24338;48.280;10.970;2022-09-09T07:31:46;14.40;99.90
38568;DHT22;24338;48.280;10.970;2022-09-09T07:34:12;14.50;99.90
38568;DHT22;24338;48.280;10.970;2022-09-09T07:36:40;14.60;99.90
38568;DHT22;24338;48.280;10.970;2022-09-09T07:39:12;14.60;99.90
38568;DHT22;24338;48.280;10.970;2022-09-09T07:41:45;14.70;99.90
38568;DHT22;24338;48.280;10.970;2022-09-09T07:44:18;14.70;99.90
38568;DHT22;24338;48.280;10.970;2022-09-09T07:46:45;14.80;99.90
38568;DHT22;24338;48.280;10.970;2022-09-09T07:49:13;14.90;99.90
38568;DHT22;24338;48.280;10.970;2022-09-09T07:51:45;14.90;99.90
38568;DHT22;24338;48.280;10.970;2022-09-09T07:54:14;15.00;99.90
38568;DHT22;24338;48.280;10.970;2022-09-09T07:56:41;15.10;99.90
38568;DHT22;24338;48.280;10.970;2022-09-09T07:59:10;15.20;99.90
38568;DHT22;24338;48.280;10.970;2022-09-09T08:01:39;15.30;99.90
38568;DHT22;24338;48.280;10.970;2022-09-09T08:04:12;15.40;99.90
38568;DHT22;24338;48.280;10.970;2022-09-09T08:06:44;15.50;99.90
38568;DHT22;24338;48.280;10.970;2022-09-09T08:09:11;15.60;99.90
38568;DHT22;24338;48.280;10.970;2022-09-09T08:11:39;15.70;99.90
38568;DHT22;24338;48.280;10.970;2022-09-09T08:14:08;15.80;99.90
38568;DHT22;24338;48.280;10.970;2022-09-09T08:16:39;15.80;99.90
38568;DHT22;24338;48.280;10.970;2022-09-09T08:19:07;15.90;99.90
38568;DHT22;24338;48.280;10.970;2022-09-09T08:21:35;16.00;99.90
38568;DHT22;24338;48.280;10.970;2022-09-09T08:24:08;16.00;99.90
38568;DHT22;24338;48.280;10.970;2022-09-09T08:26:43;16.00;99.90
38568;DHT22;24338;48.280;10.970;2022-09-09T08:29:11;16.10;99.90
38568;DHT22;24338;48.280;10.970;2022-09-09T08:31:47;16.10;99.90
38568;DHT22;24338;48.280;10.970;2022-09-09T08:34:15;16.20;99.90
38568;DHT22;24338;48.280;10.970;2022-09-09T08:36:44;16.40;99.90
38568;DHT22;24338;48.280;10.970;2022-09-09T08:39:16;16.50;99.90
38568;DHT22;24338;48.280;10.970;2022-09-09T08:47:35;16.80;99.90
38568;DHT22;24338;48.280;10.970;2022-09-09T08:50:26;16.90;99.90
38568;DHT22;24338;48.280;10.970;2022-09-09T09:09:31;17.20;99.90
38568;DHT22;24338;48.280;10.970;2022-09-09T09:12:17;17.30;99.90
38568;DHT22;24338;48.280;10.970;2022-09-09T09:14:46;17.40;99.90
38568;DHT22;24338;48.280;10.970;2022-09-09T09:17:18;17.50;99.90
38568;DHT22;24338;48.280;10.970;2022-09-09T09:19:48;17.40;99.90
38568;DHT22;24338;48.280;10.970;2022-09-09T09:22:52;17.50;99.90
38568;DHT22;24338;48.280;10.970;2022-09-09T09:25:30;17.70;99.90
38568;DHT22;24338;48.280;10.970;2022-09-09T09:28:24;17.80;99.90
38568;DHT22;24338;48.280;10.970;2022-09-09T09:31:05;17.90;99.90
38568;DHT22;24338;48.280;10.970;2022-09-09T09:33:50;17.90;99.90
38568;DHT22;24338;48.280;10.970;2022-09-09T09:36:24;17.80;99.90
38568;DHT22;24338;48.280;10.970;2022-09-09T09:39:01;17.90;99.90
38568;DHT22;24338;48.280;10.970;2022-09-09T09:41:50;17.70;99.90
38568;DHT22;24338;48.280;10.970;2022-09-09T09:44:29;17.90;99.90
38568;DHT22;24338;48.280;10.970;2022-09-09T09:47:25;17.90;99.90
38568;DHT22;24338;48.280;10.970;2022-09-09T09:50:00;17.90;99.90
38568;DHT22;24338;48.280;10.970;2022-09-09T09:52:30;17.90;99.90
38568;DHT22;24338;48.280;10.970;2022-09-09T09:54:58;17.70;99.90
38568;DHT22;24338;48.280;10.970;2022-09-09T09:57:33;17.80;99.90
38568;DHT22;24338;48.280;10.970;2022-09-09T10:00:04;17.70;99.90
38568;DHT22;24338;48.280;10.970;2022-09-09T10:02:39;17.70;99.90
38568;DHT22;24338;48.280;10.970;2022-09-09T10:05:16;17.70;99.90
38568;DHT22;24338;48.280;10.970;2022-09-09T10:08:05;17.80;99.90
38568;DHT22;24338;48.280;10.970;2022-09-09T10:13:12;17.70;99.90
38568;DHT22;24338;48.280;10.970;2022-09-09T10:15:52;17.70;99.90
38568;DHT22;24338;48.280;10.970;2022-09-09T10:24:31;17.60;99.90
38568;DHT22;24338;48.280;10.970;2022-09-09T10:27:18;17.60;99.90
38568;DHT22;24338;48.280;10.970;2022-09-09T10:30:14;17.70;99.90
38568;DHT22;24338;48.280;10.970;2022-09-09T10:43:17;17.70;99.90
38568;DHT22;24338;48.280;10.970;2022-09-09T10:46:00;17.80;99.90
38568;DHT22;24338;48.280;10.970;2022-09-09T10:57:11;18.10;99.90
38568;DHT22;24338;48.280;10.970;2022-09-09T10:59:44;18.20;99.90
38568;DHT22;24338;48.280;10.970;2022-09-09T11:02:26;18.30;99.90
38568;DHT22;24338;48.280;10.970;2022-09-09T11:05:00;18.40;99.90
38568;DHT22;24338;48.280;10.970;2022-09-09T11:10:21;18.40;99.90
38568;DHT22;24338;48.280;10.970;2022-09-09T11:12:53;18.40;99.90
38568;DHT22;24338;48.280;10.970;2022-09-09T11:15:39;18.30;99.90
38568;DHT22;24338;48.280;10.970;2022-09-09T11:18:13;18.30;99.90
38568;DHT22;24338;48.280;10.970;2022-09-09T11:20:43;18.40;99.90
38568;DHT22;24338;48.280;10.970;2022-09-09T11:23:15;18.30;99.90
38568;DHT22;24338;48.280;10.970;2022-09-09T11:25:48;18.30;99.90
38568;DHT22;24338;48.280;10.970;2022-09-09T11:28:51;18.30;99.90
